sensor_id;sensor_type;location;lat;lon;timestamp;P1;P2;P0
29460;PMS7003;16428;47.836;35.106;2023-04-24T00:00:32;38.50;35.50;25.25
29460;PMS7003;16428;47.836;35.106;2023-04-24T00:02:59;47.75;32.50;23.25
29460;PMS7003;16428;47.836;35.106;2023-04-24T00:05:27;37.00;33.00;24.00
29460;PMS7003;16428;47.836;35.106;2023-04-24T00:07:55;33.75;30.75;22.00
29460;PMS7003;16428;47.836;35.106;2023-04-24T00:10:23;32.25;29.50;21.75
29460;PMS7003;16428;47.836;35.106;2023-04-24T00:12:50;34.00;32.75;23.50
29460;PMS7003;16428;47.836;35.106;2023-04-24T00:15:18;38.00;34.75;23.50
29460;PMS7003;16428;47.836;35.106;2023-04-24T00:17:45;35.75;33.75;25.00
29460;PMS7003;16428;47.836;35.106;2023-04-24T00:20:13;41.50;38.00;26.00
29460;PMS7003;16428;47.836;35.106;2023-04-24T00:22:41;54.25;44.00;31.00
29460;PMS7003;16428;47.836;35.106;2023-04-24T00:25:09;61.75;47.25;33.00
29460;PMS7003;16428;47.836;35.106;2023-04-24T00:27:37;51.75;42.25;31.25
29460;PMS7003;16428;47.836;35.106;2023-04-24T00:30:05;53.25;42.25;28.75
29460;PMS7003;16428;47.836;35.106;2023-04-24T00:32:33;55.25;45.00;31.25
29460;PMS7003;16428;47.836;35.106;2023-04-24T00:35:01;43.25;35.75;23.75
29460;PMS7003;16428;47.836;35.106;2023-04-24T00:37:29;47.50;37.00;25.25
29460;PMS7003;16428;47.836;35.106;2023-04-24T00:39:56;39.50;37.00;25.75
29460;PMS7003;16428;47.836;35.106;2023-04-24T00:42:24;46.00;38.00;26.50
29460;PMS7003;16428;47.836;35.106;2023-04-24T00:44:52;41.00;33.50;22.50
29460;PMS7003;16428;47.836;35.106;2023-04-24T00:47:20;40.25;37.50;25.50
29460;PMS7003;16428;47.836;35.106;2023-04-24T00:49:48;35.50;34.25;24.25
29460;PMS7003;16428;47.836;35.106;2023-04-24T00:52:16;33.75;32.75;23.75
29460;PMS7003;16428;47.836;35.106;2023-04-24T00:54:44;30.00;28.00;21.75
29460;PMS7003;16428;47.836;35.106;2023-04-24T00:57:12;37.00;31.50;23.00
29460;PMS7003;16428;47.836;35.106;2023-04-24T00:59:42;27.50;27.50;22.00
29460;PMS7003;16428;47.836;35.106;2023-04-24T01:02:11;32.25;30.25;22.75
29460;PMS7003;16428;47.836;35.106;2023-04-24T01:04:39;34.25;27.25;22.75
29460;PMS7003;16428;47.836;35.106;2023-04-24T01:07:08;32.25;28.25;21.00
29460;PMS7003;16428;47.836;35.106;2023-04-24T01:09:38;35.75;30.75;22.00
29460;PMS7003;16428;47.836;35.106;2023-04-24T01:12:10;32.25;32.25;22.00
29460;PMS7003;16428;47.836;35.106;2023-04-24T01:14:38;30.00;30.00;22.75
29460;PMS7003;16428;47.836;35.106;2023-04-24T01:17:06;36.25;32.25;23.50
29460;PMS7003;16428;47.836;35.106;2023-04-24T01:19:34;39.25;33.00;23.75
29460;PMS7003;16428;47.836;35.106;2023-04-24T01:22:02;49.25;42.25;30.00
29460;PMS7003;16428;47.836;35.106;2023-04-24T01:24:30;41.25;35.25;25.00
29460;PMS7003;16428;47.836;35.106;2023-04-24T01:26:58;30.75;27.75;22.25
29460;PMS7003;16428;47.836;35.106;2023-04-24T01:29:25;26.75;26.75;20.50
29460;PMS7003;16428;47.836;35.106;2023-04-24T01:31:53;32.50;30.50;22.50
29460;PMS7003;16428;47.836;35.106;2023-04-24T01:34:22;28.25;24.50;18.75
29460;PMS7003;16428;47.836;35.106;2023-04-24T01:36:49;36.75;31.00;22.00
29460;PMS7003;16428;47.836;35.106;2023-04-24T01:39:17;35.50;32.00;24.25
29460;PMS7003;16428;47.836;35.106;2023-04-24T01:41:47;27.00;27.00;19.25
29460;PMS7003;16428;47.836;35.106;2023-04-24T01:44:16;30.25;28.75;22.25
29460;PMS7003;16428;47.836;35.106;2023-04-24T01:46:45;34.00;30.50;22.50
29460;PMS7003;16428;47.836;35.106;2023-04-24T01:49:12;33.00;31.75;21.50
29460;PMS7003;16428;47.836;35.106;2023-04-24T01:51:40;29.75;25.25;22.50
29460;PMS7003;16428;47.836;35.106;2023-04-24T01:54:07;34.75;30.00;22.50
29460;PMS7003;16428;47.836;35.106;2023-04-24T01:56:35;31.00;29.25;22.50
29460;PMS7003;16428;47.836;35.106;2023-04-24T01:59:07;34.50;29.25;20.75
29460;PMS7003;16428;47.836;35.106;2023-04-24T02:01:37;30.25;29.75;22.25
29460;PMS7003;16428;47.836;35.106;2023-04-24T02:04:06;29.75;27.25;19.75
29460;PMS7003;16428;47.836;35.106;2023-04-24T02:06:35;35.25;29.00;21.75
29460;PMS7003;16428;47.836;35.106;2023-04-24T02:09:02;38.50;31.75;21.75
29460;PMS7003;16428;47.836;35.106;2023-04-24T02:11:30;29.25;28.25;19.50
29460;PMS7003;16428;47.836;35.106;2023-04-24T02:13:58;38.75;36.00;23.75
29460;PMS7003;16428;47.836;35.106;2023-04-24T02:16:25;24.50;24.00;20.50
29460;PMS7003;16428;47.836;35.106;2023-04-24T02:18:53;36.00;33.25;22.25
29460;PMS7003;16428;47.836;35.106;2023-04-24T02:21:20;34.75;30.75;23.75
29460;PMS7003;16428;47.836;35.106;2023-04-24T02:23:47;36.25;32.50;24.50
29460;PMS7003;16428;47.836;35.106;2023-04-24T02:26:15;38.00;31.75;22.75
29460;PMS7003;16428;47.836;35.106;2023-04-24T02:28:43;34.00;33.50;24.25
29460;PMS7003;16428;47.836;35.106;2023-04-24T02:31:10;36.75;31.25;24.00
29460;PMS7003;16428;47.836;35.106;2023-04-24T02:33:38;32.00;28.50;20.75
29460;PMS7003;16428;47.836;35.106;2023-04-24T02:36:05;33.25;29.50;21.75
29460;PMS7003;16428;47.836;35.106;2023-04-24T02:38:33;33.25;28.50;21.50
29460;PMS7003;16428;47.836;35.106;2023-04-24T02:41:00;39.75;31.50;24.25
29460;PMS7003;16428;47.836;35.106;2023-04-24T02:43:29;26.50;22.50;14.00
29460;PMS7003;16428;47.836;35.106;2023-04-24T02:45:57;27.50;26.25;20.50
29460;PMS7003;16428;47.836;35.106;2023-04-24T02:48:24;34.25;33.25;20.75
29460;PMS7003;16428;47.836;35.106;2023-04-24T02:50:52;30.75;30.75;22.75
29460;PMS7003;16428;47.836;35.106;2023-04-24T02:53:20;34.00;31.50;24.00
29460;PMS7003;16428;47.836;35.106;2023-04-24T02:55:47;35.25;31.75;22.25
29460;PMS7003;16428;47.836;35.106;2023-04-24T02:58:14;30.75;22.75;19.75
29460;PMS7003;16428;47.836;35.106;2023-04-24T03:00:42;37.25;33.25;23.25
29460;PMS7003;16428;47.836;35.106;2023-04-24T03:03:10;25.25;24.75;22.00
29460;PMS7003;16428;47.836;35.106;2023-04-24T03:05:38;35.75;34.25;25.00
29460;PMS7003;16428;47.836;35.106;2023-04-24T03:08:06;34.25;30.50;22.50
29460;PMS7003;16428;47.836;35.106;2023-04-24T03:10:33;28.25;22.75;18.00
29460;PMS7003;16428;47.836;35.106;2023-04-24T03:13:01;33.00;28.75;21.75
29460;PMS7003;16428;47.836;35.106;2023-04-24T03:15:28;32.50;32.00;24.00
29460;PMS7003;16428;47.836;35.106;2023-04-24T03:17:56;37.50;32.00;23.00
29460;PMS7003;16428;47.836;35.106;2023-04-24T03:20:23;22.00;19.75;12.50
29460;PMS7003;16428;47.836;35.106;2023-04-24T03:22:51;29.00;27.00;21.00
29460;PMS7003;16428;47.836;35.106;2023-04-24T03:25:18;32.00;24.50;21.50
29460;PMS7003;16428;47.836;35.106;2023-04-24T03:27:46;30.75;28.25;22.00
29460;PMS7003;16428;47.836;35.106;2023-04-24T03:30:14;32.50;27.50;21.00
29460;PMS7003;16428;47.836;35.106;2023-04-24T03:32:42;33.50;32.00;23.75
29460;PMS7003;16428;47.836;35.106;2023-04-24T03:35:09;34.75;31.25;24.25
29460;PMS7003;16428;47.836;35.106;2023-04-24T03:37:37;34.25;29.00;22.00
29460;PMS7003;16428;47.836;35.106;2023-04-24T03:40:04;31.00;30.75;22.25
29460;PMS7003;16428;47.836;35.106;2023-04-24T03:42:33;35.75;34.50;25.25
29460;PMS7003;16428;47.836;35.106;2023-04-24T03:45:00;38.50;35.25;25.50
29460;PMS7003;16428;47.836;35.106;2023-04-24T03:47:28;29.75;29.75;21.75
29460;PMS7003;16428;47.836;35.106;2023-04-24T03:49:55;32.75;32.25;23.00
29460;PMS7003;16428;47.836;35.106;2023-04-24T03:52:23;39.75;29.50;21.75
29460;PMS7003;16428;47.836;35.106;2023-04-24T03:54:50;36.25;33.00;22.50
29460;PMS7003;16428;47.836;35.106;2023-04-24T03:57:17;33.50;33.00;24.00
29460;PMS7003;16428;47.836;35.106;2023-04-24T03:59:45;33.75;29.75;23.75
29460;PMS7003;16428;47.836;35.106;2023-04-24T04:02:12;31.75;30.75;20.50
29460;PMS7003;16428;47.836;35.106;2023-04-24T04:04:40;37.50;34.75;26.50
29460;PMS7003;16428;47.836;35.106;2023-04-24T04:07:08;31.50;29.75;22.75
29460;PMS7003;16428;47.836;35.106;2023-04-24T04:09:35;36.25;30.75;23.25
29460;PMS7003;16428;47.836;35.106;2023-04-24T04:12:03;27.25;25.75;19.00
29460;PMS7003;16428;47.836;35.106;2023-04-24T04:14:30;35.75;30.00;22.00
29460;PMS7003;16428;47.836;35.106;2023-04-24T04:16:58;32.00;30.00;21.75
29460;PMS7003;16428;47.836;35.106;2023-04-24T04:19:26;24.00;24.00;21.00
29460;PMS7003;16428;47.836;35.106;2023-04-24T04:21:53;27.50;24.50;19.50
29460;PMS7003;16428;47.836;35.106;2023-04-24T04:24:23;29.00;28.25;22.25
29460;PMS7003;16428;47.836;35.106;2023-04-24T04:26:51;33.75;32.00;23.00
29460;PMS7003;16428;47.836;35.106;2023-04-24T04:29:19;32.50;32.00;22.25
29460;PMS7003;16428;47.836;35.106;2023-04-24T04:31:46;37.50;33.25;23.75
29460;PMS7003;16428;47.836;35.106;2023-04-24T04:34:14;26.50;24.00;17.00
29460;PMS7003;16428;47.836;35.106;2023-04-24T04:36:41;28.75;25.00;19.75
29460;PMS7003;16428;47.836;35.106;2023-04-24T04:39:09;44.25;37.00;25.00
29460;PMS7003;16428;47.836;35.106;2023-04-24T04:41:37;50.50;38.75;26.25
29460;PMS7003;16428;47.836;35.106;2023-04-24T04:44:07;49.75;43.00;30.00
29460;PMS7003;16428;47.836;35.106;2023-04-24T04:46:35;56.75;46.25;30.00
29460;PMS7003;16428;47.836;35.106;2023-04-24T04:49:04;53.75;42.25;30.00
29460;PMS7003;16428;47.836;35.106;2023-04-24T04:51:31;58.50;46.00;31.00
29460;PMS7003;16428;47.836;35.106;2023-04-24T04:53:59;54.25;44.00;30.00
29460;PMS7003;16428;47.836;35.106;2023-04-24T04:56:27;58.75;47.00;31.75
29460;PMS7003;16428;47.836;35.106;2023-04-24T04:58:54;59.00;45.50;29.75
29460;PMS7003;16428;47.836;35.106;2023-04-24T05:01:21;63.25;50.00;33.00
29460;PMS7003;16428;47.836;35.106;2023-04-24T05:03:50;70.50;54.75;36.50
29460;PMS7003;16428;47.836;35.106;2023-04-24T05:06:17;71.50;53.50;35.00
29460;PMS7003;16428;47.836;35.106;2023-04-24T05:08:47;71.00;54.00;35.00
29460;PMS7003;16428;47.836;35.106;2023-04-24T05:11:15;70.25;52.75;33.00
29460;PMS7003;16428;47.836;35.106;2023-04-24T05:13:43;61.00;50.00;33.25
29460;PMS7003;16428;47.836;35.106;2023-04-24T05:16:10;73.25;54.00;36.50
29460;PMS7003;16428;47.836;35.106;2023-04-24T05:18:37;64.50;48.00;32.25
29460;PMS7003;16428;47.836;35.106;2023-04-24T05:21:05;60.50;45.75;32.25
29460;PMS7003;16428;47.836;35.106;2023-04-24T05:23:33;60.75;47.75;32.00
29460;PMS7003;16428;47.836;35.106;2023-04-24T05:26:00;57.50;45.50;30.75
29460;PMS7003;16428;47.836;35.106;2023-04-24T05:28:28;67.50;51.25;34.00
29460;PMS7003;16428;47.836;35.106;2023-04-24T05:30:56;60.50;48.25;31.25
29460;PMS7003;16428;47.836;35.106;2023-04-24T05:33:23;61.00;49.00;34.75
29460;PMS7003;16428;47.836;35.106;2023-04-24T05:35:51;66.50;51.25;34.00
29460;PMS7003;16428;47.836;35.106;2023-04-24T05:38:18;64.00;51.75;36.00
29460;PMS7003;16428;47.836;35.106;2023-04-24T05:40:46;68.75;52.00;34.25
29460;PMS7003;16428;47.836;35.106;2023-04-24T05:43:14;63.50;51.75;36.75
29460;PMS7003;16428;47.836;35.106;2023-04-24T05:45:41;50.25;42.00;27.00
29460;PMS7003;16428;47.836;35.106;2023-04-24T05:48:09;41.00;36.50;26.25
29460;PMS7003;16428;47.836;35.106;2023-04-24T05:50:37;40.50;34.75;24.00
29460;PMS7003;16428;47.836;35.106;2023-04-24T05:53:04;36.25;31.75;21.00
29460;PMS7003;16428;47.836;35.106;2023-04-24T05:55:33;49.00;40.50;27.75
29460;PMS7003;16428;47.836;35.106;2023-04-24T05:58:01;39.00;33.50;24.25
29460;PMS7003;16428;47.836;35.106;2023-04-24T06:00:30;32.00;30.00;21.67
29460;PMS7003;16428;47.836;35.106;2023-04-24T06:02:59;31.75;30.50;22.25
29460;PMS7003;16428;47.836;35.106;2023-04-24T06:05:28;36.00;32.50;22.50
29460;PMS7003;16428;47.836;35.106;2023-04-24T06:07:55;34.75;32.75;23.50
29460;PMS7003;16428;47.836;35.106;2023-04-24T06:10:23;41.00;35.50;25.75
29460;PMS7003;16428;47.836;35.106;2023-04-24T06:12:51;45.75;38.25;26.75
29460;PMS7003;16428;47.836;35.106;2023-04-24T06:15:18;46.25;40.25;28.75
29460;PMS7003;16428;47.836;35.106;2023-04-24T06:17:47;51.50;41.50;28.50
29460;PMS7003;16428;47.836;35.106;2023-04-24T06:20:14;63.75;48.00;31.25
29460;PMS7003;16428;47.836;35.106;2023-04-24T06:22:42;60.25;46.50;32.00
29460;PMS7003;16428;47.836;35.106;2023-04-24T06:25:09;67.50;48.00;31.00
29460;PMS7003;16428;47.836;35.106;2023-04-24T06:27:37;63.25;49.50;32.50
29460;PMS7003;16428;47.836;35.106;2023-04-24T06:30:05;72.25;55.00;35.75
29460;PMS7003;16428;47.836;35.106;2023-04-24T06:32:33;74.50;55.00;36.25
29460;PMS7003;16428;47.836;35.106;2023-04-24T06:35:00;66.50;50.50;33.00
29460;PMS7003;16428;47.836;35.106;2023-04-24T06:37:28;61.75;50.25;35.00
29460;PMS7003;16428;47.836;35.106;2023-04-24T06:39:56;59.50;48.00;32.50
29460;PMS7003;16428;47.836;35.106;2023-04-24T06:42:23;54.25;45.25;30.50
29460;PMS7003;16428;47.836;35.106;2023-04-24T06:44:51;57.25;42.75;28.75
29460;PMS7003;16428;47.836;35.106;2023-04-24T06:47:19;47.75;37.50;26.25
29460;PMS7003;16428;47.836;35.106;2023-04-24T06:49:46;59.75;46.00;32.00
29460;PMS7003;16428;47.836;35.106;2023-04-24T06:52:14;46.67;37.00;26.00
29460;PMS7003;16428;47.836;35.106;2023-04-24T06:54:41;45.00;35.67;24.00
29460;PMS7003;16428;47.836;35.106;2023-04-24T06:57:09;57.75;47.50;32.25
29460;PMS7003;16428;47.836;35.106;2023-04-24T06:59:37;56.75;46.25;30.00
29460;PMS7003;16428;47.836;35.106;2023-04-24T07:02:05;51.33;42.00;28.33
29460;PMS7003;16428;47.836;35.106;2023-04-24T07:04:33;47.00;38.00;27.00
29460;PMS7003;16428;47.836;35.106;2023-04-24T07:07:01;47.67;35.00;24.67
29460;PMS7003;16428;47.836;35.106;2023-04-24T07:09:29;48.67;40.67;27.00
29460;PMS7003;16428;47.836;35.106;2023-04-24T07:11:57;45.33;37.33;27.00
29460;PMS7003;16428;47.836;35.106;2023-04-24T07:14:24;43.00;34.25;24.00
29460;PMS7003;16428;47.836;35.106;2023-04-24T07:16:51;35.00;32.75;24.25
29460;PMS7003;16428;47.836;35.106;2023-04-24T07:19:19;44.33;37.67;27.00
29460;PMS7003;16428;47.836;35.106;2023-04-24T07:21:46;52.00;39.00;28.67
29460;PMS7003;16428;47.836;35.106;2023-04-24T07:24:13;46.00;39.33;28.00
29460;PMS7003;16428;47.836;35.106;2023-04-24T07:26:41;45.67;39.00;27.33
29460;PMS7003;16428;47.836;35.106;2023-04-24T07:29:08;45.50;36.50;24.75
29460;PMS7003;16428;47.836;35.106;2023-04-24T07:31:36;44.67;36.67;27.00
29460;PMS7003;16428;47.836;35.106;2023-04-24T07:34:04;42.00;37.33;26.33
29460;PMS7003;16428;47.836;35.106;2023-04-24T07:36:31;38.75;32.50;22.75
29460;PMS7003;16428;47.836;35.106;2023-04-24T07:38:59;33.75;31.00;22.75
29460;PMS7003;16428;47.836;35.106;2023-04-24T07:41:26;30.25;29.25;19.75
29460;PMS7003;16428;47.836;35.106;2023-04-24T07:43:55;38.00;33.67;23.00
29460;PMS7003;16428;47.836;35.106;2023-04-24T07:46:22;58.00;48.00;34.00
29460;PMS7003;16428;47.836;35.106;2023-04-24T07:48:50;54.67;43.67;29.00
29460;PMS7003;16428;47.836;35.106;2023-04-24T07:51:37;57.25;45.00;29.50
29460;PMS7003;16428;47.836;35.106;2023-04-24T07:54:06;59.00;45.00;30.50
29460;PMS7003;16428;47.836;35.106;2023-04-24T07:56:33;70.00;53.50;38.25
29460;PMS7003;16428;47.836;35.106;2023-04-24T07:59:01;77.25;64.75;45.00
29460;PMS7003;16428;47.836;35.106;2023-04-24T08:01:29;73.75;61.00;39.25
29460;PMS7003;16428;47.836;35.106;2023-04-24T08:03:57;75.00;59.25;40.00
29460;PMS7003;16428;47.836;35.106;2023-04-24T08:06:25;74.00;59.00;42.00
29460;PMS7003;16428;47.836;35.106;2023-04-24T08:08:57;77.50;65.75;44.75
29460;PMS7003;16428;47.836;35.106;2023-04-24T08:11:25;75.25;61.25;43.25
29460;PMS7003;16428;47.836;35.106;2023-04-24T08:13:53;77.50;61.00;42.00
29460;PMS7003;16428;47.836;35.106;2023-04-24T08:16:22;69.00;52.50;36.00
29460;PMS7003;16428;47.836;35.106;2023-04-24T08:18:51;73.25;59.00;39.00
29460;PMS7003;16428;47.836;35.106;2023-04-24T08:21:20;71.75;53.00;35.75
29460;PMS7003;16428;47.836;35.106;2023-04-24T08:23:47;61.00;46.50;30.50
29460;PMS7003;16428;47.836;35.106;2023-04-24T08:26:15;53.00;43.50;29.25
29460;PMS7003;16428;47.836;35.106;2023-04-24T08:28:42;69.00;53.50;36.00
29460;PMS7003;16428;47.836;35.106;2023-04-24T08:31:10;65.33;45.33;29.33
29460;PMS7003;16428;47.836;35.106;2023-04-24T08:33:37;48.00;37.75;28.00
29460;PMS7003;16428;47.836;35.106;2023-04-24T08:36:05;53.25;43.25;30.00
29460;PMS7003;16428;47.836;35.106;2023-04-24T08:38:33;60.50;43.25;29.00
29460;PMS7003;16428;47.836;35.106;2023-04-24T08:41:01;47.75;40.25;28.00
29460;PMS7003;16428;47.836;35.106;2023-04-24T08:43:29;50.50;38.75;24.50
29460;PMS7003;16428;47.836;35.106;2023-04-24T08:45:59;54.00;42.50;29.00
29460;PMS7003;16428;47.836;35.106;2023-04-24T08:48:30;53.25;42.00;28.75
29460;PMS7003;16428;47.836;35.106;2023-04-24T08:50:59;44.00;36.75;23.75
29460;PMS7003;16428;47.836;35.106;2023-04-24T08:53:26;53.50;41.25;27.75
29460;PMS7003;16428;47.836;35.106;2023-04-24T08:55:55;60.67;49.00;35.00
29460;PMS7003;16428;47.836;35.106;2023-04-24T08:58:27;45.75;37.25;26.25
29460;PMS7003;16428;47.836;35.106;2023-04-24T09:00:55;42.25;35.50;26.00
29460;PMS7003;16428;47.836;35.106;2023-04-24T09:03:23;42.25;35.25;25.75
29460;PMS7003;16428;47.836;35.106;2023-04-24T09:05:51;43.75;35.25;25.25
29460;PMS7003;16428;47.836;35.106;2023-04-24T09:08:19;54.50;43.75;29.50
29460;PMS7003;16428;47.836;35.106;2023-04-24T09:10:50;53.50;42.75;30.00
29460;PMS7003;16428;47.836;35.106;2023-04-24T09:13:18;53.00;43.50;30.00
29460;PMS7003;16428;47.836;35.106;2023-04-24T09:15:47;55.50;43.00;29.00
29460;PMS7003;16428;47.836;35.106;2023-04-24T09:18:16;44.25;37.00;24.50
29460;PMS7003;16428;47.836;35.106;2023-04-24T09:21:01;24.00;22.25;20.25
29460;PMS7003;16428;47.836;35.106;2023-04-24T09:23:31;49.50;36.75;26.00
29460;PMS7003;16428;47.836;35.106;2023-04-24T09:26:00;48.25;36.75;27.00
29460;PMS7003;16428;47.836;35.106;2023-04-24T09:28:29;31.75;29.25;22.50
29460;PMS7003;16428;47.836;35.106;2023-04-24T09:31:09;31.75;28.50;20.50
29460;PMS7003;16428;47.836;35.106;2023-04-24T09:33:52;27.50;22.75;17.25
29460;PMS7003;16428;47.836;35.106;2023-04-24T09:36:26;17.50;16.50;13.25
29460;PMS7003;16428;47.836;35.106;2023-04-24T09:39:00;21.25;13.50;11.00
29460;PMS7003;16428;47.836;35.106;2023-04-24T09:41:29;19.50;19.00;15.75
29460;PMS7003;16428;47.836;35.106;2023-04-24T09:43:57;22.00;21.75;17.75
29460;PMS7003;16428;47.836;35.106;2023-04-24T09:46:37;9.25;9.25;6.75
29460;PMS7003;16428;47.836;35.106;2023-04-24T09:49:09;16.50;15.25;12.25
29460;PMS7003;16428;47.836;35.106;2023-04-24T09:51:40;19.50;19.50;15.00
29460;PMS7003;16428;47.836;35.106;2023-04-24T09:54:19;24.25;23.00;17.50
29460;PMS7003;16428;47.836;35.106;2023-04-24T09:56:49;18.80;15.60;12.00
29460;PMS7003;16428;47.836;35.106;2023-04-24T09:59:18;7.20;7.20;6.80
29460;PMS7003;16428;47.836;35.106;2023-04-24T10:01:46;7.80;6.60;5.60
29460;PMS7003;16428;47.836;35.106;2023-04-24T10:04:20;9.40;7.40;6.80
29460;PMS7003;16428;47.836;35.106;2023-04-24T10:06:50;13.60;11.00;8.60
29460;PMS7003;16428;47.836;35.106;2023-04-24T10:09:20;8.60;8.60;6.60
29460;PMS7003;16428;47.836;35.106;2023-04-24T10:11:50;18.20;13.00;10.00
29460;PMS7003;16428;47.836;35.106;2023-04-24T10:14:21;13.40;12.80;10.60
29460;PMS7003;16428;47.836;35.106;2023-04-24T10:16:52;17.80;12.00;9.80
29460;PMS7003;16428;47.836;35.106;2023-04-24T10:19:22;5.00;5.00;4.60
29460;PMS7003;16428;47.836;35.106;2023-04-24T10:21:53;9.60;7.00;6.20
29460;PMS7003;16428;47.836;35.106;2023-04-24T10:24:22;5.20;4.40;4.00
29460;PMS7003;16428;47.836;35.106;2023-04-24T10:26:50;9.40;8.80;8.00
29460;PMS7003;16428;47.836;35.106;2023-04-24T10:29:18;5.60;5.00;4.40
29460;PMS7003;16428;47.836;35.106;2023-04-24T10:31:46;6.80;6.80;6.20
29460;PMS7003;16428;47.836;35.106;2023-04-24T10:34:15;5.60;5.60;5.00
29460;PMS7003;16428;47.836;35.106;2023-04-24T10:36:46;11.00;8.60;7.80
29460;PMS7003;16428;47.836;35.106;2023-04-24T10:39:17;15.20;11.40;9.80
29460;PMS7003;16428;47.836;35.106;2023-04-24T10:41:55;13.40;11.00;9.00
29460;PMS7003;16428;47.836;35.106;2023-04-24T10:44:25;19.20;15.20;12.00
29460;PMS7003;16428;47.836;35.106;2023-04-24T10:47:04;16.00;14.00;12.20
29460;PMS7003;16428;47.836;35.106;2023-04-24T10:49:31;9.80;9.80;8.40
29460;PMS7003;16428;47.836;35.106;2023-04-24T10:52:00;16.80;11.20;9.00
29460;PMS7003;16428;47.836;35.106;2023-04-24T10:54:33;10.80;9.20;7.20
29460;PMS7003;16428;47.836;35.106;2023-04-24T11:00:09;11.60;7.80;7.00
29460;PMS7003;16428;47.836;35.106;2023-04-24T11:02:39;7.20;7.20;6.80
29460;PMS7003;16428;47.836;35.106;2023-04-24T11:05:10;8.20;8.20;7.20
29460;PMS7003;16428;47.836;35.106;2023-04-24T11:10:44;9.80;8.20;7.00
29460;PMS7003;16428;47.836;35.106;2023-04-24T11:13:14;9.80;8.00;7.00
29460;PMS7003;16428;47.836;35.106;2023-04-24T11:21:38;18.00;16.00;12.80
29460;PMS7003;16428;47.836;35.106;2023-04-24T11:27:18;6.80;6.80;5.00
29460;PMS7003;16428;47.836;35.106;2023-04-24T11:32:28;15.80;13.20;10.40
29460;PMS7003;16428;47.836;35.106;2023-04-24T11:35:04;22.40;16.40;12.60
29460;PMS7003;16428;47.836;35.106;2023-04-24T11:37:41;16.00;16.00;14.00
29460;PMS7003;16428;47.836;35.106;2023-04-24T11:40:11;19.60;17.20;14.00
29460;PMS7003;16428;47.836;35.106;2023-04-24T11:42:44;17.40;14.40;12.60
29460;PMS7003;16428;47.836;35.106;2023-04-24T11:45:16;22.20;15.40;13.40
29460;PMS7003;16428;47.836;35.106;2023-04-24T11:47:45;12.60;12.60;10.40
29460;PMS7003;16428;47.836;35.106;2023-04-24T11:50:14;9.00;8.60;7.00
29460;PMS7003;16428;47.836;35.106;2023-04-24T11:52:43;11.00;11.00;9.20
29460;PMS7003;16428;47.836;35.106;2023-04-24T11:57:43;13.60;13.00;9.80
29460;PMS7003;16428;47.836;35.106;2023-04-24T12:00:21;11.00;11.00;9.00
29460;PMS7003;16428;47.836;35.106;2023-04-24T12:02:50;14.60;13.00;10.00
29460;PMS7003;16428;47.836;35.106;2023-04-24T12:05:19;12.00;12.00;10.40
29460;PMS7003;16428;47.836;35.106;2023-04-24T12:07:51;22.40;20.60;15.40
29460;PMS7003;16428;47.836;35.106;2023-04-24T12:10:20;14.40;14.40;9.60
29460;PMS7003;16428;47.836;35.106;2023-04-24T12:12:49;12.60;11.80;10.20
29460;PMS7003;16428;47.836;35.106;2023-04-24T12:15:19;10.60;10.60;8.40
29460;PMS7003;16428;47.836;35.106;2023-04-24T12:17:48;8.00;8.00;6.40
29460;PMS7003;16428;47.836;35.106;2023-04-24T12:20:17;7.40;7.40;5.80
29460;PMS7003;16428;47.836;35.106;2023-04-24T12:22:53;9.00;9.00;7.00
29460;PMS7003;16428;47.836;35.106;2023-04-24T12:25:23;7.60;7.60;6.80
29460;PMS7003;16428;47.836;35.106;2023-04-24T12:28:11;9.80;9.80;8.20
29460;PMS7003;16428;47.836;35.106;2023-04-24T12:30:41;12.00;11.00;9.00
29460;PMS7003;16428;47.836;35.106;2023-04-24T12:33:12;10.00;10.00;8.20
29460;PMS7003;16428;47.836;35.106;2023-04-24T12:35:39;13.60;12.40;10.40
29460;PMS7003;16428;47.836;35.106;2023-04-24T12:38:08;19.40;15.40;13.20
29460;PMS7003;16428;47.836;35.106;2023-04-24T12:40:37;18.80;18.20;14.80
29460;PMS7003;16428;47.836;35.106;2023-04-24T12:43:15;18.60;16.60;10.80
29460;PMS7003;16428;47.836;35.106;2023-04-24T12:45:48;15.00;15.00;12.80
29460;PMS7003;16428;47.836;35.106;2023-04-24T12:48:16;9.40;9.40;8.00
29460;PMS7003;16428;47.836;35.106;2023-04-24T12:50:44;6.60;6.60;5.60
29460;PMS7003;16428;47.836;35.106;2023-04-24T12:53:13;9.60;7.20;6.00
29460;PMS7003;16428;47.836;35.106;2023-04-24T12:55:41;11.00;8.00;6.80
29460;PMS7003;16428;47.836;35.106;2023-04-24T12:58:09;9.00;9.00;7.00
29460;PMS7003;16428;47.836;35.106;2023-04-24T13:00:38;15.00;12.60;9.20
29460;PMS7003;16428;47.836;35.106;2023-04-24T13:03:05;12.20;9.40;8.20
29460;PMS7003;16428;47.836;35.106;2023-04-24T13:05:33;14.20;12.20;9.40
29460;PMS7003;16428;47.836;35.106;2023-04-24T13:08:01;13.00;12.60;10.60
29460;PMS7003;16428;47.836;35.106;2023-04-24T13:10:28;14.60;12.00;8.80
29460;PMS7003;16428;47.836;35.106;2023-04-24T13:12:56;12.60;11.60;8.60
29460;PMS7003;16428;47.836;35.106;2023-04-24T13:15:24;11.00;10.60;9.00
29460;PMS7003;16428;47.836;35.106;2023-04-24T13:17:52;22.40;17.80;13.00
29460;PMS7003;16428;47.836;35.106;2023-04-24T13:20:19;15.40;12.80;10.80
29460;PMS7003;16428;47.836;35.106;2023-04-24T13:22:47;19.20;14.40;10.40
29460;PMS7003;16428;47.836;35.106;2023-04-24T13:25:14;11.20;11.00;8.00
29460;PMS7003;16428;47.836;35.106;2023-04-24T13:27:44;11.20;11.00;8.00
29460;PMS7003;16428;47.836;35.106;2023-04-24T13:30:11;23.40;18.20;12.20
29460;PMS7003;16428;47.836;35.106;2023-04-24T13:32:40;15.20;13.60;10.00
29460;PMS7003;16428;47.836;35.106;2023-04-24T13:35:07;12.40;10.40;8.00
29460;PMS7003;16428;47.836;35.106;2023-04-24T13:37:35;9.00;9.00;7.00
29460;PMS7003;16428;47.836;35.106;2023-04-24T13:40:04;13.20;10.00;8.00
29460;PMS7003;16428;47.836;35.106;2023-04-24T13:42:33;10.40;10.40;8.40
29460;PMS7003;16428;47.836;35.106;2023-04-24T13:45:01;11.80;11.20;10.00
29460;PMS7003;16428;47.836;35.106;2023-04-24T13:47:43;12.40;11.20;8.20
29460;PMS7003;16428;47.836;35.106;2023-04-24T13:50:11;15.00;15.00;11.40
29460;PMS7003;16428;47.836;35.106;2023-04-24T13:52:39;10.80;10.20;9.00
29460;PMS7003;16428;47.836;35.106;2023-04-24T13:55:06;10.00;10.00;9.40
29460;PMS7003;16428;47.836;35.106;2023-04-24T13:57:34;13.60;13.60;9.60
29460;PMS7003;16428;47.836;35.106;2023-04-24T14:00:02;11.80;11.80;10.60
29460;PMS7003;16428;47.836;35.106;2023-04-24T14:02:31;15.40;14.40;12.20
29460;PMS7003;16428;47.836;35.106;2023-04-24T14:04:59;20.20;14.80;11.00
29460;PMS7003;16428;47.836;35.106;2023-04-24T14:07:27;12.60;11.60;9.20